sensor_id;sensor_type;location;lat;lon;timestamp;temperature;humidity
69204;DHT22;56317;27.658;85.326;2023-09-30T00:01:47;18.90;99.90
69204;DHT22;56317;27.658;85.326;2023-09-30T00:04:15;18.90;99.90
69204;DHT22;56317;27.658;85.326;2023-09-30T00:06:42;18.90;99.90
69204;DHT22;56317;27.658;85.326;2023-09-30T00:09:10;18.90;99.90
69204;DHT22;56317;27.658;85.326;2023-09-30T00:11:38;18.90;99.90
69204;DHT22;56317;27.658;85.326;2023-09-30T00:14:05;18.90;99.90
69204;DHT22;56317;27.658;85.326;2023-09-30T00:16:32;18.90;99.90
69204;DHT22;56317;27.658;85.326;2023-09-30T00:18:59;18.90;99.90
69204;DHT22;56317;27.658;85.326;2023-09-30T00:21:28;18.90;99.90
69204;DHT22;56317;27.658;85.326;2023-09-30T00:23:55;18.90;99.90
69204;DHT22;56317;27.658;85.326;2023-09-30T00:26:22;18.90;99.90
69204;DHT22;56317;27.658;85.326;2023-09-30T00:28:49;18.90;99.90
69204;DHT22;56317;27.658;85.326;2023-09-30T00:31:17;18.90;99.90
69204;DHT22;56317;27.658;85.326;2023-09-30T00:33:44;18.90;99.90
69204;DHT22;56317;27.658;85.326;2023-09-30T00:36:11;19.00;99.90
69204;DHT22;56317;27.658;85.326;2023-09-30T00:38:38;19.00;99.90
69204;DHT22;56317;27.658;85.326;2023-09-30T00:41:06;19.10;99.90
69204;DHT22;56317;27.658;85.326;2023-09-30T00:43:34;19.10;99.90
69204;DHT22;56317;27.658;85.326;2023-09-30T00:48:34;19.20;99.90
69204;DHT22;56317;27.658;85.326;2023-09-30T00:51:02;19.30;99.90
69204;DHT22;56317;27.658;85.326;2023-09-30T00:53:29;19.40;99.90
69204;DHT22;56317;27.658;85.326;2023-09-30T00:55:57;19.50;99.90
69204;DHT22;56317;27.658;85.326;2023-09-30T00:58:26;19.50;99.90
69204;DHT22;56317;27.658;85.326;2023-09-30T01:00:56;19.60;99.90
69204;DHT22;56317;27.658;85.326;2023-09-30T01:03:23;19.60;99.90
69204;DHT22;56317;27.658;85.326;2023-09-30T01:05:51;19.70;99.90
69204;DHT22;56317;27.658;85.326;2023-09-30T01:08:18;19.80;99.90
69204;DHT22;56317;27.658;85.326;2023-09-30T01:10:46;19.90;99.90
69204;DHT22;56317;27.658;85.326;2023-09-30T01:13:14;19.90;99.90
69204;DHT22;56317;27.658;85.326;2023-09-30T01:15:41;19.90;99.90
69204;DHT22;56317;27.658;85.326;2023-09-30T01:18:08;20.00;99.90
69204;DHT22;56317;27.658;85.326;2023-09-30T01:20:35;20.00;99.90
69204;DHT22;56317;27.658;85.326;2023-09-30T01:23:02;20.10;99.90
69204;DHT22;56317;27.658;85.326;2023-09-30T01:25:30;20.10;99.90
69204;DHT22;56317;27.658;85.326;2023-09-30T01:27:59;20.20;99.90
69204;DHT22;56317;27.658;85.326;2023-09-30T01:30:32;20.30;99.90
69204;DHT22;56317;27.658;85.326;2023-09-30T01:33:00;20.30;99.90
69204;DHT22;56317;27.658;85.326;2023-09-30T01:35:27;20.50;99.90
69204;DHT22;56317;27.658;85.326;2023-09-30T01:37:54;20.60;99.90
69204;DHT22;56317;27.658;85.326;2023-09-30T01:40:21;20.70;99.90
69204;DHT22;56317;27.658;85.326;2023-09-30T01:42:48;20.80;99.90
69204;DHT22;56317;27.658;85.326;2023-09-30T01:45:15;21.00;99.90
69204;DHT22;56317;27.658;85.326;2023-09-30T01:47:42;21.10;99.90
69204;DHT22;56317;27.658;85.326;2023-09-30T01:50:10;21.30;99.90
69204;DHT22;56317;27.658;85.326;2023-09-30T01:52:37;21.50;99.90
69204;DHT22;56317;27.658;85.326;2023-09-30T01:55:04;21.80;99.90
69204;DHT22;56317;27.658;85.326;2023-09-30T01:57:31;22.00;99.90
69204;DHT22;56317;27.658;85.326;2023-09-30T01:59:58;22.20;99.90
69204;DHT22;56317;27.658;85.326;2023-09-30T02:02:25;22.40;99.90
69204;DHT22;56317;27.658;85.326;2023-09-30T02:04:53;22.70;99.90
69204;DHT22;56317;27.658;85.326;2023-09-30T02:07:20;22.80;99.90
69204;DHT22;56317;27.658;85.326;2023-09-30T02:09:47;23.10;99.90
69204;DHT22;56317;27.658;85.326;2023-09-30T02:12:15;23.20;99.90
69204;DHT22;56317;27.658;85.326;2023-09-30T02:14:43;23.30;99.90
69204;DHT22;56317;27.658;85.326;2023-09-30T02:17:10;23.50;99.90
69204;DHT22;56317;27.658;85.326;2023-09-30T02:19:37;23.60;99.90
69204;DHT22;56317;27.658;85.326;2023-09-30T02:22:05;23.70;99.90
69204;DHT22;56317;27.658;85.326;2023-09-30T02:24:32;23.80;99.90
69204;DHT22;56317;27.658;85.326;2023-09-30T02:26:59;23.90;99.90
69204;DHT22;56317;27.658;85.326;2023-09-30T02:29:26;23.90;99.90
69204;DHT22;56317;27.658;85.326;2023-09-30T02:31:54;24.10;99.90
69204;DHT22;56317;27.658;85.326;2023-09-30T02:34:21;24.20;99.90
69204;DHT22;56317;27.658;85.326;2023-09-30T02:36:48;24.30;99.90
69204;DHT22;56317;27.658;85.326;2023-09-30T02:39:15;24.40;99.90
69204;DHT22;56317;27.658;85.326;2023-09-30T02:41:43;24.70;99.90
69204;DHT22;56317;27.658;85.326;2023-09-30T02:44:10;24.90;99.90
69204;DHT22;56317;27.658;85.326;2023-09-30T02:46:38;25.10;99.90
69204;DHT22;56317;27.658;85.326;2023-09-30T02:49:09;25.30;99.90
69204;DHT22;56317;27.658;85.326;2023-09-30T02:51:36;25.40;99.90
69204;DHT22;56317;27.658;85.326;2023-09-30T02:54:03;25.50;99.90
69204;DHT22;56317;27.658;85.326;2023-09-30T02:56:32;25.60;99.90
69204;DHT22;56317;27.658;85.326;2023-09-30T02:58:59;25.70;99.90
69204;DHT22;56317;27.658;85.326;2023-09-30T03:01:26;25.80;99.90
69204;DHT22;56317;27.658;85.326;2023-09-30T03:03:53;25.80;99.90
69204;DHT22;56317;27.658;85.326;2023-09-30T03:06:21;26.00;99.90
69204;DHT22;56317;27.658;85.326;2023-09-30T03:08:48;26.10;99.90
69204;DHT22;56317;27.658;85.326;2023-09-30T03:11:15;26.20;99.90
69204;DHT22;56317;27.658;85.326;2023-09-30T03:13:44;26.40;99.90
69204;DHT22;56317;27.658;85.326;2023-09-30T03:16:11;26.30;99.90
69204;DHT22;56317;27.658;85.326;2023-09-30T03:18:38;26.40;99.90
69204;DHT22;56317;27.658;85.326;2023-09-30T03:21:14;26.40;99.90
69204;DHT22;56317;27.658;85.326;2023-09-30T03:23:41;26.50;99.90
69204;DHT22;56317;27.658;85.326;2023-09-30T03:26:08;26.70;99.90
69204;DHT22;56317;27.658;85.326;2023-09-30T03:28:37;26.80;99.90
69204;DHT22;56317;27.658;85.326;2023-09-30T03:31:05;27.00;99.90
69204;DHT22;56317;27.658;85.326;2023-09-30T03:33:35;27.00;99.90
69204;DHT22;56317;27.658;85.326;2023-09-30T03:36:03;27.10;99.90
69204;DHT22;56317;27.658;85.326;2023-09-30T03:38:30;27.30;99.90
69204;DHT22;56317;27.658;85.326;2023-09-30T03:41:00;27.50;99.90
69204;DHT22;56317;27.658;85.326;2023-09-30T03:43:27;27.60;99.90
69204;DHT22;56317;27.658;85.326;2023-09-30T03:45:54;27.80;99.90
69204;DHT22;56317;27.658;85.326;2023-09-30T03:48:23;28.00;99.90
69204;DHT22;56317;27.658;85.326;2023-09-30T03:50:50;28.30;99.90
69204;DHT22;56317;27.658;85.326;2023-09-30T03:53:19;28.50;99.90
69204;DHT22;56317;27.658;85.326;2023-09-30T03:55:46;28.50;99.90
69204;DHT22;56317;27.658;85.326;2023-09-30T03:58:13;28.60;99.90
69204;DHT22;56317;27.658;85.326;2023-09-30T04:00:41;28.80;99.90
69204;DHT22;56317;27.658;85.326;2023-09-30T04:03:08;29.00;99.90
69204;DHT22;56317;27.658;85.326;2023-09-30T04:05:35;29.30;99.90
69204;DHT22;56317;27.658;85.326;2023-09-30T04:08:03;29.40;99.90
69204;DHT22;56317;27.658;85.326;2023-09-30T04:10:31;29.70;99.90
69204;DHT22;56317;27.658;85.326;2023-09-30T04:12:58;30.00;99.90
69204;DHT22;56317;27.658;85.326;2023-09-30T04:15:25;30.30;99.90
69204;DHT22;56317;27.658;85.326;2023-09-30T04:17:52;30.40;99.90
69204;DHT22;56317;27.658;85.326;2023-09-30T04:20:19;30.50;99.90
69204;DHT22;56317;27.658;85.326;2023-09-30T04:22:53;30.80;99.90
69204;DHT22;56317;27.658;85.326;2023-09-30T04:25:24;30.90;99.90
69204;DHT22;56317;27.658;85.326;2023-09-30T04:27:51;31.10;99.90
69204;DHT22;56317;27.658;85.326;2023-09-30T04:30:19;31.30;99.90
69204;DHT22;56317;27.658;85.326;2023-09-30T04:32:48;31.70;99.90
69204;DHT22;56317;27.658;85.326;2023-09-30T04:35:15;32.10;99.90
69204;DHT22;56317;27.658;85.326;2023-09-30T04:37:44;32.40;99.90
69204;DHT22;56317;27.658;85.326;2023-09-30T04:40:12;32.90;99.90
69204;DHT22;56317;27.658;85.326;2023-09-30T04:42:42;32.90;99.90
69204;DHT22;56317;27.658;85.326;2023-09-30T04:45:11;33.10;99.90
69204;DHT22;56317;27.658;85.326;2023-09-30T04:47:39;33.30;99.90
69204;DHT22;56317;27.658;85.326;2023-09-30T04:50:07;33.50;99.10
69204;DHT22;56317;27.658;85.326;2023-09-30T04:52:35;33.80;98.90
69204;DHT22;56317;27.658;85.326;2023-09-30T04:55:02;34.10;98.90
69204;DHT22;56317;27.658;85.326;2023-09-30T04:57:30;34.10;97.20
69204;DHT22;56317;27.658;85.326;2023-09-30T04:59:58;34.60;98.00
69204;DHT22;56317;27.658;85.326;2023-09-30T05:02:26;35.20;97.10
69204;DHT22;56317;27.658;85.326;2023-09-30T05:04:54;35.40;96.20
69204;DHT22;56317;27.658;85.326;2023-09-30T05:07:21;35.20;95.70
69204;DHT22;56317;27.658;85.326;2023-09-30T05:09:48;35.30;94.90
69204;DHT22;56317;27.658;85.326;2023-09-30T05:12:16;35.50;94.90
69204;DHT22;56317;27.658;85.326;2023-09-30T05:14:43;35.60;94.30
69204;DHT22;56317;27.658;85.326;2023-09-30T05:17:10;35.60;93.60
69204;DHT22;56317;27.658;85.326;2023-09-30T05:19:37;36.20;94.20
69204;DHT22;56317;27.658;85.326;2023-09-30T05:22:04;37.30;92.80
69204;DHT22;56317;27.658;85.326;2023-09-30T05:24:31;37.50;92.10
69204;DHT22;56317;27.658;85.326;2023-09-30T05:26:58;37.90;91.20
69204;DHT22;56317;27.658;85.326;2023-09-30T05:29:26;38.00;91.00
69204;DHT22;56317;27.658;85.326;2023-09-30T05:31:53;38.50;89.60
69204;DHT22;56317;27.658;85.326;2023-09-30T05:34:20;38.60;87.50
69204;DHT22;56317;27.658;85.326;2023-09-30T05:36:47;38.10;87.10
69204;DHT22;56317;27.658;85.326;2023-09-30T05:39:15;37.70;89.00
69204;DHT22;56317;27.658;85.326;2023-09-30T05:41:47;37.70;88.60
69204;DHT22;56317;27.658;85.326;2023-09-30T05:44:14;37.50;86.80
69204;DHT22;56317;27.658;85.326;2023-09-30T05:46:41;36.80;86.90
69204;DHT22;56317;27.658;85.326;2023-09-30T05:49:11;36.30;87.80
69204;DHT22;56317;27.658;85.326;2023-09-30T05:51:41;36.40;86.10
69204;DHT22;56317;27.658;85.326;2023-09-30T05:54:08;36.60;85.50
69204;DHT22;56317;27.658;85.326;2023-09-30T05:56:39;36.60;84.30
69204;DHT22;56317;27.658;85.326;2023-09-30T05:59:09;36.10;87.60
69204;DHT22;56317;27.658;85.326;2023-09-30T06:01:37;35.50;88.20
69204;DHT22;56317;27.658;85.326;2023-09-30T06:04:05;35.00;85.90
69204;DHT22;56317;27.658;85.326;2023-09-30T06:06:33;34.70;87.80
69204;DHT22;56317;27.658;85.326;2023-09-30T06:09:00;34.90;87.10
69204;DHT22;56317;27.658;85.326;2023-09-30T06:11:27;35.30;89.50
69204;DHT22;56317;27.658;85.326;2023-09-30T06:13:58;35.60;88.00
69204;DHT22;56317;27.658;85.326;2023-09-30T06:16:25;35.70;87.50
69204;DHT22;56317;27.658;85.326;2023-09-30T06:18:53;36.10;86.00
69204;DHT22;56317;27.658;85.326;2023-09-30T06:21:21;36.30;84.70
69204;DHT22;56317;27.658;85.326;2023-09-30T06:23:49;36.20;85.00
69204;DHT22;56317;27.658;85.326;2023-09-30T06:26:18;36.20;84.80
69204;DHT22;56317;27.658;85.326;2023-09-30T06:28:47;36.90;85.80
69204;DHT22;56317;27.658;85.326;2023-09-30T06:31:14;37.40;83.80
69204;DHT22;56317;27.658;85.326;2023-09-30T06:33:42;38.20;82.30
69204;DHT22;56317;27.658;85.326;2023-09-30T06:36:13;38.60;80.90
69204;DHT22;56317;27.658;85.326;2023-09-30T06:38:41;38.30;81.60
69204;DHT22;56317;27.658;85.326;2023-09-30T06:41:09;37.80;81.90
69204;DHT22;56317;27.658;85.326;2023-09-30T06:43:36;37.40;81.90
69204;DHT22;56317;27.658;85.326;2023-09-30T06:46:09;37.10;81.80
69204;DHT22;56317;27.658;85.326;2023-09-30T06:48:37;36.70;81.60
69204;DHT22;56317;27.658;85.326;2023-09-30T06:51:06;36.30;81.90
69204;DHT22;56317;27.658;85.326;2023-09-30T06:53:34;35.50;81.70
69204;DHT22;56317;27.658;85.326;2023-09-30T06:56:05;34.90;83.10
69204;DHT22;56317;27.658;85.326;2023-09-30T06:58:32;34.50;84.70
69204;DHT22;56317;27.658;85.326;2023-09-30T07:00:59;34.40;84.70
69204;DHT22;56317;27.658;85.326;2023-09-30T07:03:28;34.50;84.50
69204;DHT22;56317;27.658;85.326;2023-09-30T07:05:57;34.70;85.80
69204;DHT22;56317;27.658;85.326;2023-09-30T07:08:33;34.70;85.10
69204;DHT22;56317;27.658;85.326;2023-09-30T07:11:02;34.30;84.30
69204;DHT22;56317;27.658;85.326;2023-09-30T07:13:33;34.10;85.20
69204;DHT22;56317;27.658;85.326;2023-09-30T07:16:03;33.80;86.00
69204;DHT22;56317;27.658;85.326;2023-09-30T07:18:30;33.40;86.60
69204;DHT22;56317;27.658;85.326;2023-09-30T07:20:59;33.20;87.40
69204;DHT22;56317;27.658;85.326;2023-09-30T07:23:31;33.00;88.50
69204;DHT22;56317;27.658;85.326;2023-09-30T07:26:01;33.30;88.80
69204;DHT22;56317;27.658;85.326;2023-09-30T07:28:33;33.10;89.50
69204;DHT22;56317;27.658;85.326;2023-09-30T07:31:01;33.20;89.90
69204;DHT22;56317;27.658;85.326;2023-09-30T07:33:28;33.40;88.90
69204;DHT22;56317;27.658;85.326;2023-09-30T07:35:56;33.30;88.90
69204;DHT22;56317;27.658;85.326;2023-09-30T07:38:23;33.20;89.30
69204;DHT22;56317;27.658;85.326;2023-09-30T07:40:50;33.10;88.50
69204;DHT22;56317;27.658;85.326;2023-09-30T07:43:17;33.00;87.80
69204;DHT22;56317;27.658;85.326;2023-09-30T07:45:46;33.30;87.90
69204;DHT22;56317;27.658;85.326;2023-09-30T07:48:14;33.90;87.40
69204;DHT22;56317;27.658;85.326;2023-09-30T07:50:41;35.00;87.10
69204;DHT22;56317;27.658;85.326;2023-09-30T07:53:09;37.40;84.20
69204;DHT22;56317;27.658;85.326;2023-09-30T07:55:38;39.40;81.00
69204;DHT22;56317;27.658;85.326;2023-09-30T07:58:06;39.30;79.60
69204;DHT22;56317;27.658;85.326;2023-09-30T08:00:37;38.40;78.00
69204;DHT22;56317;27.658;85.326;2023-09-30T08:03:05;37.70;79.70
69204;DHT22;56317;27.658;85.326;2023-09-30T08:05:33;37.60;79.50
69204;DHT22;56317;27.658;85.326;2023-09-30T08:08:02;37.90;77.20
69204;DHT22;56317;27.658;85.326;2023-09-30T08:10:32;38.90;77.30
69204;DHT22;56317;27.658;85.326;2023-09-30T08:13:05;38.60;76.60
69204;DHT22;56317;27.658;85.326;2023-09-30T08:15:33;37.40;78.50
69204;DHT22;56317;27.658;85.326;2023-09-30T08:18:06;36.40;80.60
69204;DHT22;56317;27.658;85.326;2023-09-30T08:20:37;35.20;83.30
69204;DHT22;56317;27.658;85.326;2023-09-30T08:23:06;34.10;85.70
69204;DHT22;56317;27.658;85.326;2023-09-30T08:25:33;33.30;86.30
69204;DHT22;56317;27.658;85.326;2023-09-30T08:28:01;32.60;88.40
69204;DHT22;56317;27.658;85.326;2023-09-30T08:30:28;31.90;89.90
69204;DHT22;56317;27.658;85.326;2023-09-30T08:32:57;31.50;90.80
69204;DHT22;56317;27.658;85.326;2023-09-30T08:35:27;30.90;91.10
69204;DHT22;56317;27.658;85.326;2023-09-30T08:37:55;30.30;92.30
69204;DHT22;56317;27.658;85.326;2023-09-30T08:40:22;29.80;93.00
69204;DHT22;56317;27.658;85.326;2023-09-30T08:42:52;29.60;93.70
69204;DHT22;56317;27.658;85.326;2023-09-30T08:45:23;29.40;94.30
69204;DHT22;56317;27.658;85.326;2023-09-30T08:47:53;29.30;94.70
69204;DHT22;56317;27.658;85.326;2023-09-30T08:50:24;29.20;94.40
69204;DHT22;56317;27.658;85.326;2023-09-30T08:52:51;28.90;94.60
69204;DHT22;56317;27.658;85.326;2023-09-30T08:55:19;28.70;94.70
69204;DHT22;56317;27.658;85.326;2023-09-30T08:57:47;28.40;94.70
69204;DHT22;56317;27.658;85.326;2023-09-30T09:00:15;28.20;95.60
69204;DHT22;56317;27.658;85.326;2023-09-30T09:02:44;28.00;96.00
69204;DHT22;56317;27.658;85.326;2023-09-30T09:05:12;27.90;96.40
69204;DHT22;56317;27.658;85.326;2023-09-30T09:07:40;27.90;97.10
69204;DHT22;56317;27.658;85.326;2023-09-30T09:10:10;27.80;97.10
69204;DHT22;56317;27.658;85.326;2023-09-30T09:12:41;27.70;98.10
69204;DHT22;56317;27.658;85.326;2023-09-30T09:15:21;27.40;98.90
69204;DHT22;56317;27.658;85.326;2023-09-30T09:17:48;27.20;99.80
69204;DHT22;56317;27.658;85.326;2023-09-30T09:20:20;26.90;99.90
69204;DHT22;56317;27.658;85.326;2023-09-30T09:22:52;26.70;99.90
69204;DHT22;56317;27.658;85.326;2023-09-30T09:25:24;26.50;99.90
69204;DHT22;56317;27.658;85.326;2023-09-30T09:27:54;26.30;99.90
69204;DHT22;56317;27.658;85.326;2023-09-30T09:30:27;26.00;99.90
69204;DHT22;56317;27.658;85.326;2023-09-30T09:33:05;25.70;99.90
69204;DHT22;56317;27.658;85.326;2023-09-30T09:35:34;25.30;99.90
69204;DHT22;56317;27.658;85.326;2023-09-30T09:38:06;24.90;99.90
69204;DHT22;56317;27.658;85.326;2023-09-30T09:40:38;24.50;99.90
69204;DHT22;56317;27.658;85.326;2023-09-30T09:43:07;24.20;99.90
69204;DHT22;56317;27.658;85.326;2023-09-30T09:45:38;24.00;99.90
69204;DHT22;56317;27.658;85.326;2023-09-30T09:48:07;23.70;99.90
69204;DHT22;56317;27.658;85.326;2023-09-30T09:50:37;23.50;99.90
69204;DHT22;56317;27.658;85.326;2023-09-30T09:53:05;23.20;99.90
69204;DHT22;56317;27.658;85.326;2023-09-30T09:55:37;23.10;99.90
69204;DHT22;56317;27.658;85.326;2023-09-30T09:58:08;23.00;99.90
69204;DHT22;56317;27.658;85.326;2023-09-30T10:00:40;22.80;99.90
69204;DHT22;56317;27.658;85.326;2023-09-30T10:03:08;22.70;99.90
69204;DHT22;56317;27.658;85.326;2023-09-30T10:05:36;22.60;99.90
69204;DHT22;56317;27.658;85.326;2023-09-30T10:08:14;22.50;99.90
69204;DHT22;56317;27.658;85.326;2023-09-30T10:10:45;22.40;99.90
69204;DHT22;56317;27.658;85.326;2023-09-30T10:19:23;22.20;99.90
69204;DHT22;56317;27.658;85.326;2023-09-30T10:24:59;22.10;99.90
69204;DHT22;56317;27.658;85.326;2023-09-30T10:27:34;22.10;99.90
69204;DHT22;56317;27.658;85.326;2023-09-30T10:40:53;22.00;99.90
69204;DHT22;56317;27.658;85.326;2023-09-30T10:43:40;22.10;99.90
69204;DHT22;56317;27.658;85.326;2023-09-30T10:46:30;22.00;99.90
69204;DHT22;56317;27.658;85.326;2023-09-30T10:52:00;21.90;99.90
69204;DHT22;56317;27.658;85.326;2023-09-30T10:54:34;21.90;99.90
69204;DHT22;56317;27.658;85.326;2023-09-30T10:57:07;21.90;99.90
69204;DHT22;56317;27.658;85.326;2023-09-30T10:59:44;21.90;99.90
69204;DHT22;56317;27.658;85.326;2023-09-30T11:02:23;21.90;99.90
69204;DHT22;56317;27.658;85.326;2023-09-30T11:05:16;21.90;99.90
69204;DHT22;56317;27.658;85.326;2023-09-30T11:08:02;21.90;99.90
69204;DHT22;56317;27.658;85.326;2023-09-30T11:10:39;21.90;99.90
69204;DHT22;56317;27.658;85.326;2023-09-30T11:13:19;21.90;99.90
69204;DHT22;56317;27.658;85.326;2023-09-30T11:16:03;21.90;99.90
69204;DHT22;56317;27.658;85.326;2023-09-30T11:18:40;21.90;99.90
69204;DHT22;56317;27.658;85.326;2023-09-30T11:21:13;21.90;99.90
69204;DHT22;56317;27.658;85.326;2023-09-30T11:23:45;22.00;99.90
69204;DHT22;56317;27.658;85.326;2023-09-30T11:26:30;22.00;99.90
69204;DHT22;56317;27.658;85.326;2023-09-30T11:29:11;22.10;99.90
69204;DHT22;56317;27.658;85.326;2023-09-30T11:31:46;22.10;99.90
69204;DHT22;56317;27.658;85.326;2023-09-30T11:34:16;22.10;99.90
69204;DHT22;56317;27.658;85.326;2023-09-30T11:36:52;22.10;99.90
69204;DHT22;56317;27.658;85.326;2023-09-30T11:39:27;22.10;99.90
69204;DHT22;56317;27.658;85.326;2023-09-30T11:41:56;22.20;99.90
69204;DHT22;56317;27.658;85.326;2023-09-30T11:44:24;22.10;99.90
69204;DHT22;56317;27.658;85.326;2023-09-30T11:46:58;22.10;99.90
69204;DHT22;56317;27.658;85.326;2023-09-30T11:49:43;22.10;99.90
69204;DHT22;56317;27.658;85.326;2023-09-30T11:52:16;22.00;99.90
69204;DHT22;56317;27.658;85.326;2023-09-30T11:54:44;22.00;99.90
69204;DHT22;56317;27.658;85.326;2023-09-30T11:57:17;22.00;99.90
69204;DHT22;56317;27.658;85.326;2023-09-30T11:59:45;21.90;99.90
69204;DHT22;56317;27.658;85.326;2023-09-30T12:02:13;21.90;99.90
69204;DHT22;56317;27.658;85.326;2023-09-30T12:04:45;21.90;99.90
69204;DHT22;56317;27.658;85.326;2023-09-30T12:07:13;21.80;99.90
69204;DHT22;56317;27.658;85.326;2023-09-30T12:09:41;21.80;99.90
69204;DHT22;56317;27.658;85.326;2023-09-30T12:12:09;21.80;99.90
69204;DHT22;56317;27.658;85.326;2023-09-30T12:14:37;21.80;99.90
69204;DHT22;56317;27.658;85.326;2023-09-30T12:17:04;21.80;99.90
69204;DHT22;56317;27.658;85.326;2023-09-30T12:19:31;21.80;99.90
69204;DHT22;56317;27.658;85.326;2023-09-30T12:21:58;21.80;99.90
69204;DHT22;56317;27.658;85.326;2023-09-30T12:24:26;21.80;99.90
69204;DHT22;56317;27.658;85.326;2023-09-30T12:26:53;21.80;99.90
69204;DHT22;56317;27.658;85.326;2023-09-30T12:29:22;21.70;99.90
69204;DHT22;56317;27.658;85.326;2023-09-30T12:31:51;21.70;99.90
69204;DHT22;56317;27.658;85.326;2023-09-30T12:34:18;21.70;99.90
69204;DHT22;56317;27.658;85.326;2023-09-30T12:36:46;21.70;99.90
69204;DHT22;56317;27.658;85.326;2023-09-30T12:39:14;21.70;99.90
69204;DHT22;56317;27.658;85.326;2023-09-30T12:41:44;21.70;99.90
69204;DHT22;56317;27.658;85.326;2023-09-30T12:44:11;21.70;99.90
69204;DHT22;56317;27.658;85.326;2023-09-30T12:46:38;21.70;99.90
69204;DHT22;56317;27.658;85.326;2023-09-30T12:49:08;21.70;99.90
69204;DHT22;56317;27.658;85.326;2023-09-30T12:51:36;21.70;99.90
69204;DHT22;56317;27.658;85.326;2023-09-30T12:54:04;21.80;99.90
69204;DHT22;56317;27.658;85.326;2023-09-30T12:56:32;21.80;99.90
69204;DHT22;56317;27.658;85.326;2023-09-30T12:58:59;21.80;99.90
69204;DHT22;56317;27.658;85.326;2023-09-30T13:01:27;21.80;99.90
69204;DHT22;56317;27.658;85.326;2023-09-30T13:03:57;21.70;99.90
69204;DHT22;56317;27.658;85.326;2023-09-30T13:06:25;21.70;99.90
69204;DHT22;56317;27.658;85.326;2023-09-30T13:08:52;21.80;99.90
69204;DHT22;56317;27.658;85.326;2023-09-30T13:11:19;21.80;99.90
69204;DHT22;56317;27.658;85.326;2023-09-30T13:13:46;21.80;99.90
69204;DHT22;56317;27.658;85.326;2023-09-30T13:16:13;21.80;99.90
69204;DHT22;56317;27.658;85.326;2023-09-30T13:18:41;21.70;99.90
69204;DHT22;56317;27.658;85.326;2023-09-30T13:21:08;21.60;99.90
69204;DHT22;56317;27.658;85.326;2023-09-30T13:23:38;21.60;99.90
69204;DHT22;56317;27.658;85.326;2023-09-30T13:26:05;21.50;99.90
69204;DHT22;56317;27.658;85.326;2023-09-30T13:28:32;21.50;99.90
69204;DHT22;56317;27.658;85.326;2023-09-30T13:31:00;21.60;99.90
69204;DHT22;56317;27.658;85.326;2023-09-30T13:33:27;21.50;99.90
69204;DHT22;56317;27.658;85.326;2023-09-30T13:35:54;21.60;99.90
69204;DHT22;56317;27.658;85.326;2023-09-30T13:38:22;21.50;99.90
69204;DHT22;56317;27.658;85.326;2023-09-30T13:40:50;21.60;99.90
69204;DHT22;56317;27.658;85.326;2023-09-30T13:43:17;21.60;99.90
69204;DHT22;56317;27.658;85.326;2023-09-30T13:45:44;21.60;99.90
69204;DHT22;56317;27.658;85.326;2023-09-30T13:48:11;21.60;99.90
69204;DHT22;56317;27.658;85.326;2023-09-30T13:50:38;21.50;99.90
69204;DHT22;56317;27.658;85.326;2023-09-30T13:53:05;21.50;99.90
69204;DHT22;56317;27.658;85.326;2023-09-30T13:55:37;21.50;99.90
69204;DHT22;56317;27.658;85.326;2023-09-30T13:58:04;21.50;99.90
69204;DHT22;56317;27.658;85.326;2023-09-30T14:00:31;21.40;99.90
69204;DHT22;56317;27.658;85.326;2023-09-30T14:03:00;21.50;99.90
69204;DHT22;56317;27.658;85.326;2023-09-30T14:05:27;21.40;99.90
69204;DHT22;56317;27.658;85.326;2023-09-30T14:07:54;21.40;99.90
69204;DHT22;56317;27.658;85.326;2023-09-30T14:10:21;21.40;99.90
69204;DHT22;56317;27.658;85.326;2023-09-30T14:12:49;21.40;99.90
69204;DHT22;56317;27.658;85.326;2023-09-30T14:15:16;21.40;99.90
69204;DHT22;56317;27.658;85.326;2023-09-30T14:17:44;21.40;99.90
69204;DHT22;56317;27.658;85.326;2023-09-30T14:20:11;21.40;99.90
69204;DHT22;56317;27.658;85.326;2023-09-30T14:22:42;21.30;99.90
69204;DHT22;56317;27.658;85.326;2023-09-30T14:25:09;21.30;99.90
69204;DHT22;56317;27.658;85.326;2023-09-30T14:27:37;21.30;99.90
69204;DHT22;56317;27.658;85.326;2023-09-30T14:30:04;21.30;99.90
69204;DHT22;56317;27.658;85.326;2023-09-30T14:32:32;21.20;99.90
69204;DHT22;56317;27.658;85.326;2023-09-30T14:34:59;21.20;99.90
69204;DHT22;56317;27.658;85.326;2023-09-30T14:37:26;21.20;99.90
69204;DHT22;56317;27.658;85.326;2023-09-30T14:39:55;21.20;99.90
69204;DHT22;56317;27.658;85.326;2023-09-30T14:42:23;21.20;99.90
69204;DHT22;56317;27.658;85.326;2023-09-30T14:44:50;21.20;99.90
69204;DHT22;56317;27.658;85.326;2023-09-30T14:47:17;21.20;99.90
69204;DHT22;56317;27.658;85.326;2023-09-30T14:49:44;21.20;99.90
69204;DHT22;56317;27.658;85.326;2023-09-30T14:52:12;21.20;99.90
69204;DHT22;56317;27.658;85.326;2023-09-30T14:54:40;21.20;99.90
69204;DHT22;56317;27.658;85.326;2023-09-30T14:57:07;21.20;99.90
69204;DHT22;56317;27.658;85.326;2023-09-30T14:59:36;21.20;99.90
69204;DHT22;56317;27.658;85.326;2023-09-30T15:02:03;21.10;99.90
69204;DHT22;56317;27.658;85.326;2023-09-30T15:04:30;21.10;99.90
69204;DHT22;56317;27.658;85.326;2023-09-30T15:06:59;21.10;99.90
69204;DHT22;56317;27.658;85.326;2023-09-30T15:09:27;21.10;99.90
69204;DHT22;56317;27.658;85.326;2023-09-30T15:11:54;21.10;99.90
69204;DHT22;56317;27.658;85.326;2023-09-30T15:14:21;21.00;99.90
69204;DHT22;56317;27.658;85.326;2023-09-30T15:16:49;21.00;99.90
69204;DHT22;56317;27.658;85.326;2023-09-30T15:19:16;21.00;99.90
69204;DHT22;56317;27.658;85.326;2023-09-30T15:21:44;21.00;99.90
69204;DHT22;56317;27.658;85.326;2023-09-30T15:24:12;21.00;99.90
69204;DHT22;56317;27.658;85.326;2023-09-30T15:26:39;21.00;99.90
69204;DHT22;56317;27.658;85.326;2023-09-30T15:29:06;20.90;99.90
69204;DHT22;56317;27.658;85.326;2023-09-30T15:31:33;20.90;99.90
69204;DHT22;56317;27.658;85.326;2023-09-30T15:34:01;20.90;99.90
69204;DHT22;56317;27.658;85.326;2023-09-30T15:36:29;20.90;99.90
69204;DHT22;56317;27.658;85.326;2023-09-30T15:38:56;20.90;99.90
69204;DHT22;56317;27.658;85.326;2023-09-30T15:41:24;20.90;99.90
69204;DHT22;56317;27.658;85.326;2023-09-30T15:43:51;21.00;99.90
69204;DHT22;56317;27.658;85.326;2023-09-30T15:46:18;20.90;99.90
69204;DHT22;56317;27.658;85.326;2023-09-30T15:48:46;20.90;99.90
69204;DHT22;56317;27.658;85.326;2023-09-30T15:51:13;21.00;99.90